| time (UTC) | temp F | wind direction | speed MPH | gust MPH | rain 1hr in | rain 24hr in | rain mn in | humidity % | barometer mb |
| 20260510044019 | 53 | 0 | 0.0 | 2.0 | 0.02 | 0.34 | 0.02 | 96 | 1009.3 |
| 20260510043023 | 53 | 265 | 1.0 | 3.0 | 0.02 | 0.34 | 0.02 | 96 | 1009.3 |
| 20260510042027 | 53 | 203 | 0.0 | 2.0 | 0.02 | 0.34 | 0.02 | 95 | 1009.3 |
| 20260510041026 | 53 | 176 | 3.0 | 4.0 | 0.00 | 0.32 | 0.00 | 95 | 1008.6 |
| 20260510040058 | 53 | 171 | 5.0 | 6.0 | 0.00 | 0.32 | 0.00 | 95 | 1008.7 |
| 20260510035023 | 53 | 196 | 5.0 | 8.0 | 0.00 | 0.32 | 0.32 | 95 | 1008.7 |
| 20260510034021 | 52 | 189 | 7.0 | 10.0 | 0.00 | 0.32 | 0.32 | 97 | 1008.5 |
| 20260510033039 | 52 | 127 | 2.0 | 3.0 | 0.00 | 0.32 | 0.32 | 97 | 1008.2 |
| 20260510032017 | 52 | 219 | 2.0 | 3.0 | 0.00 | 0.32 | 0.32 | 97 | 1008.2 |
| 20260510031016 | 52 | 0.0 | 0.0 | 0.00 | 0.32 | 0.32 | 96 | 1007.9 | |
| 20260510030026 | 53 | 203 | 0.0 | 1.0 | 0.00 | 0.32 | 0.32 | 96 | 1008.2 |
| 20260510025030 | 53 | 183 | 3.0 | 5.0 | 0.00 | 0.32 | 0.32 | 96 | 1008.4 |
| 20260510024016 | 53 | 186 | 4.0 | 5.0 | 0.00 | 0.32 | 0.32 | 96 | 1008.4 |
| 20260510023022 | 53 | 188 | 4.0 | 7.0 | 0.00 | 0.32 | 0.32 | 96 | 1008.3 |
| 20260510022025 | 53 | 176 | 4.0 | 6.0 | 0.00 | 0.32 | 0.32 | 96 | 1008.3 |
| 20260510021029 | 53 | 171 | 3.0 | 5.0 | 0.00 | 0.32 | 0.32 | 96 | 1008.3 |
| 20260510020016 | 53 | 144 | 3.0 | 4.0 | 0.00 | 0.32 | 0.32 | 95 | 1008.1 |
| 20260510015101 | 53 | 168 | 3.0 | 3.0 | 0.00 | 0.32 | 0.32 | 95 | 1007.8 |
| 20260510014024 | 53 | 163 | 3.0 | 4.0 | 0.00 | 0.32 | 0.32 | 95 | 1007.8 |
| 20260510013028 | 54 | 162 | 4.0 | 5.0 | 0.00 | 0.32 | 0.32 | 94 | 1007.7 |
| 20260510012053 | 54 | 173 | 4.0 | 5.0 | 0.00 | 0.32 | 0.32 | 94 | 1007.6 |
| 20260510011019 | 54 | 172 | 5.0 | 6.0 | 0.00 | 0.32 | 0.32 | 94 | 1007.5 |
| 20260510010023 | 54 | 185 | 4.0 | 5.0 | 0.00 | 0.33 | 0.32 | 94 | 1007.5 |
| 20260510005113 | 54 | 170 | 4.0 | 6.0 | 0.00 | 0.33 | 0.32 | 94 | 1007.4 |
| 20260510004032 | 54 | 150 | 4.0 | 5.0 | 0.00 | 0.33 | 0.32 | 94 | 1007.4 |
| 20260510003018 | 54 | 153 | 3.0 | 6.0 | 0.01 | 0.33 | 0.32 | 94 | 1007.5 |
| 20260510002022 | 55 | 161 | 4.0 | 5.0 | 0.04 | 0.33 | 0.32 | 93 | 1007.4 |
| 20260510001026 | 55 | 172 | 2.0 | 4.0 | 0.07 | 0.33 | 0.32 | 92 | 1007.2 |
| 20260510000030 | 55 | 168 | 4.0 | 5.0 | 0.11 | 0.33 | 0.32 | 92 | 1007.1 |
| 20260509235038 | 55 | 200 | 6.0 | 7.0 | 0.31 | 0.33 | 0.32 | 92 | 1007.0 |
| 20260509234021 | 55 | 200 | 7.0 | 10.0 | 0.32 | 0.33 | 0.32 | 92 | 1007.2 |
| 20260509233025 | 54 | 241 | 6.0 | 8.0 | 0.31 | 0.32 | 0.31 | 93 | 1007.6 |
| 20260509232050 | 54 | 261 | 3.0 | 6.0 | 0.28 | 0.29 | 0.28 | 93 | 1007.8 |
| 20260509231016 | 54 | 249 | 4.0 | 7.0 | 0.25 | 0.26 | 0.25 | 92 | 1008.2 |
| 20260509230020 | 54 | 268 | 6.0 | 9.0 | 0.21 | 0.22 | 0.21 | 89 | 1007.5 |
| 20260509225025 | 59 | 37 | 5.0 | 6.0 | 0.01 | 0.02 | 0.01 | 78 | 1005.8 |
| 20260509224029 | 67 | 243 | 8.0 | 11.0 | 0.00 | 0.01 | 0.00 | 59 | 1005.2 |
| 20260509223035 | 67 | 222 | 10.0 | 14.0 | 0.00 | 0.01 | 0.00 | 60 | 1004.9 |
| 20260509222038 | 67 | 200 | 8.0 | 11.0 | 0.00 | 0.01 | 0.00 | 60 | 1004.6 |
| 20260509221023 | 67 | 194 | 11.0 | 13.0 | 0.00 | 0.01 | 0.00 | 60 | 1004.1 |
| 20260509220041 | 68 | 207 | 11.0 | 13.0 | 0.00 | 0.01 | 0.00 | 60 | 1004.2 |
| 20260509215020 | 68 | 206 | 15.0 | 22.0 | 0.00 | 0.01 | 0.00 | 59 | 1004.0 |
| 20260509214018 | 70 | 195 | 12.0 | 19.0 | 0.00 | 0.01 | 0.00 | 58 | 1004.1 |
| 20260509213016 | 69 | 193 | 13.0 | 18.0 | 0.00 | 0.01 | 0.00 | 58 | 1004.2 |
| 20260509212026 | 68 | 208 | 14.0 | 19.0 | 0.00 | 0.01 | 0.00 | 58 | 1004.4 |
| 20260509211031 | 68 | 203 | 12.0 | 15.0 | 0.00 | 0.01 | 0.00 | 60 | 1004.6 |
| 20260509210017 | 68 | 212 | 12.0 | 16.0 | 0.00 | 0.01 | 0.00 | 59 | 1005.0 |
| 20260509205021 | 69 | 200 | 13.0 | 17.0 | 0.00 | 0.01 | 0.00 | 59 | 1005.0 |
| 20260509204025 | 68 | 200 | 12.0 | 15.0 | 0.00 | 0.01 | 0.00 | 60 | 1005.1 |
| 20260509203050 | 67 | 192 | 13.0 | 17.0 | 0.00 | 0.01 | 0.00 | 60 | 1005.2 |
| 20260509202036 | 68 | 177 | 15.0 | 20.0 | 0.00 | 0.01 | 0.00 | 60 | 1005.2 |
| 20260509201021 | 69 | 184 | 11.0 | 14.0 | 0.00 | 0.01 | 0.00 | 60 | 1005.4 |
| 20260509200025 | 68 | 190 | 11.0 | 17.0 | 0.00 | 0.01 | 0.00 | 60 | 1005.7 |
| 20260509195029 | 67 | 200 | 15.0 | 18.0 | 0.00 | 0.01 | 0.00 | 59 | 1005.8 |
| 20260509194015 | 68 | 179 | 14.0 | 18.0 | 0.00 | 0.01 | 0.00 | 59 | 1005.9 |
| 20260509193019 | 68 | 182 | 12.0 | 17.0 | 0.00 | 0.01 | 0.00 | 60 | 1005.9 |
| 20260509192025 | 67 | 200 | 12.0 | 16.0 | 0.00 | 0.01 | 0.00 | 61 | 1006.1 |
| 20260509191028 | 68 | 197 | 13.0 | 17.0 | 0.00 | 0.01 | 0.00 | 60 | 1006.2 |
| 20260509190032 | 68 | 190 | 11.0 | 16.0 | 0.00 | 0.01 | 0.00 | 61 | 1006.2 |
| 20260509185019 | 69 | 217 | 11.0 | 16.0 | 0.00 | 0.01 | 0.00 | 60 | 1006.2 |
| 20260509184043 | 67 | 198 | 12.0 | 16.0 | 0.00 | 0.01 | 0.00 | 60 | 1006.3 |
| 20260509183027 | 67 | 216 | 12.0 | 16.0 | 0.00 | 0.01 | 0.00 | 61 | 1006.4 |
| 20260509182031 | 68 | 210 | 11.0 | 15.0 | 0.00 | 0.01 | 0.00 | 61 | 1006.4 |
| 20260509181017 | 67 | 203 | 11.0 | 14.0 | 0.00 | 0.01 | 0.00 | 60 | 1006.6 |
| 20260509180021 | 67 | 208 | 10.0 | 12.0 | 0.00 | 0.01 | 0.00 | 59 | 1006.7 |
| 20260509175025 | 66 | 186 | 8.0 | 10.0 | 0.00 | 0.01 | 0.00 | 61 | 1006.7 |
| 20260509174030 | 66 | 202 | 12.0 | 15.0 | 0.00 | 0.01 | 0.00 | 60 | 1006.7 |
| 20260509173016 | 66 | 198 | 11.0 | 14.0 | 0.00 | 0.01 | 0.00 | 61 | 1006.8 |
| 20260509172021 | 65 | 210 | 9.0 | 13.0 | 0.00 | 0.01 | 0.00 | 63 | 1007.0 |
| 20260509171025 | 65 | 179 | 9.0 | 13.0 | 0.00 | 0.01 | 0.00 | 64 | 1006.9 |
| 20260509170029 | 66 | 210 | 9.0 | 11.0 | 0.00 | 0.01 | 0.00 | 65 | 1007.0 |
| 20260509165035 | 64 | 169 | 7.0 | 9.0 | 0.00 | 0.01 | 0.00 | 65 | 1007.2 |
| 20260509164019 | 64 | 197 | 9.0 | 11.0 | 0.00 | 0.01 | 0.00 | 68 | 1007.4 |
| 20260509163024 | 63 | 227 | 7.0 | 11.0 | 0.00 | 0.01 | 0.00 | 69 | 1007.5 |
| 20260509162022 | 63 | 233 | 7.0 | 10.0 | 0.00 | 0.01 | 0.00 | 70 | 1007.5 |
| 20260509161040 | 63 | 196 | 7.0 | 10.0 | 0.00 | 0.01 | 0.00 | 74 | 1007.7 |
| 20260509160019 | 62 | 194 | 6.0 | 9.0 | 0.00 | 0.01 | 0.00 | 77 | 1007.7 |
| 20260509155017 | 60 | 189 | 4.0 | 6.0 | 0.00 | 0.01 | 0.00 | 80 | 1007.7 |
| 20260509154015 | 60 | 164 | 7.0 | 10.0 | 0.00 | 0.01 | 0.00 | 81 | 1007.7 |
| 20260509153032 | 59 | 160 | 6.0 | 8.0 | 0.00 | 0.01 | 0.00 | 82 | 1007.8 |
| 20260509152018 | 59 | 194 | 6.0 | 8.0 | 0.00 | 0.01 | 0.00 | 85 | 1007.9 |
| 20260509151022 | 57 | 168 | 6.0 | 8.0 | 0.00 | 0.01 | 0.00 | 86 | 1008.0 |
| 20260509150026 | 57 | 190 | 6.0 | 9.0 | 0.00 | 0.01 | 0.00 | 87 | 1008.0 |
| 20260509145031 | 57 | 178 | 6.0 | 8.0 | 0.00 | 0.01 | 0.00 | 88 | 1008.0 |
| 20260509144017 | 56 | 165 | 5.0 | 6.0 | 0.00 | 0.01 | 0.00 | 89 | 1008.0 |
| 20260509143022 | 56 | 195 | 7.0 | 8.0 | 0.00 | 0.01 | 0.00 | 90 | 1007.9 |
| 20260509142026 | 55 | 178 | 6.0 | 8.0 | 0.00 | 0.01 | 0.00 | 91 | 1008.0 |
| 20260509141030 | 55 | 197 | 6.0 | 7.0 | 0.00 | 0.01 | 0.00 | 91 | 1008.2 |
| 20260509140016 | 55 | 187 | 5.0 | 6.0 | 0.00 | 0.01 | 0.00 | 91 | 1008.1 |
| 20260509135021 | 54 | 183 | 6.0 | 8.0 | 0.00 | 0.01 | 0.00 | 92 | 1008.1 |
| 20260509134026 | 54 | 162 | 5.0 | 7.0 | 0.00 | 0.01 | 0.00 | 92 | 1008.2 |
| 20260509133029 | 54 | 180 | 7.0 | 9.0 | 0.00 | 0.01 | 0.00 | 92 | 1008.2 |
| 20260509132016 | 54 | 176 | 6.0 | 8.0 | 0.00 | 0.01 | 0.00 | 92 | 1008.3 |
| 20260509131040 | 54 | 186 | 7.0 | 9.0 | 0.00 | 0.01 | 0.00 | 93 | 1008.2 |
| 20260509130045 | 53 | 171 | 6.0 | 8.0 | 0.00 | 0.01 | 0.00 | 93 | 1008.3 |
| 20260509125029 | 53 | 164 | 6.0 | 7.0 | 0.00 | 0.01 | 0.00 | 93 | 1008.4 |
| 20260509124035 | 53 | 184 | 7.0 | 9.0 | 0.00 | 0.01 | 0.00 | 93 | 1008.5 |
| 20260509123040 | 53 | 181 | 7.0 | 9.0 | 0.00 | 0.01 | 0.00 | 94 | 1008.5 |
| 20260509122024 | 52 | 187 | 8.0 | 10.0 | 0.00 | 0.01 | 0.00 | 94 | 1008.5 |
| 20260509121025 | 52 | 173 | 6.0 | 9.0 | 0.00 | 0.01 | 0.00 | 94 | 1008.6 |
| 20260509120024 | 52 | 188 | 6.0 | 8.0 | 0.00 | 0.01 | 0.00 | 94 | 1008.6 |
| 20260509115028 | 52 | 191 | 6.0 | 8.0 | 0.00 | 0.01 | 0.00 | 95 | 1008.5 |
| 20260509114032 | 51 | 153 | 6.0 | 8.0 | 0.00 | 0.01 | 0.00 | 95 | 1008.5 |
| 20260509113019 | 51 | 183 | 5.0 | 7.0 | 0.00 | 0.01 | 0.00 | 95 | 1008.5 |
| 20260509112023 | 51 | 177 | 5.0 | 6.0 | 0.00 | 0.01 | 0.00 | 95 | 1008.5 |
| 20260509111027 | 51 | 184 | 6.0 | 7.0 | 0.00 | 0.01 | 0.00 | 96 | 1008.5 |
| 20260509110026 | 51 | 186 | 6.0 | 9.0 | 0.00 | 0.01 | 0.00 | 96 | 1008.6 |
| 20260509105018 | 51 | 176 | 5.0 | 7.0 | 0.00 | 0.01 | 0.00 | 96 | 1008.5 |
| 20260509104042 | 51 | 171 | 5.0 | 5.0 | 0.00 | 0.01 | 0.00 | 96 | 1008.5 |
| 20260509103021 | 51 | 157 | 5.0 | 6.0 | 0.00 | 0.01 | 0.00 | 95 | 1008.5 |
| 20260509102039 | 51 | 174 | 4.0 | 6.0 | 0.00 | 0.01 | 0.00 | 95 | 1008.4 |
| 20260509101017 | 51 | 184 | 5.0 | 8.0 | 0.00 | 0.01 | 0.00 | 95 | 1008.4 |
| 20260509100036 | 51 | 167 | 4.0 | 6.0 | 0.00 | 0.01 | 0.00 | 95 | 1008.4 |
| 20260509095025 | 51 | 178 | 6.0 | 10.0 | 0.00 | 0.01 | 0.00 | 95 | 1008.6 |
| 20260509094030 | 51 | 173 | 6.0 | 8.0 | 0.00 | 0.01 | 0.00 | 95 | 1008.7 |
| 20260509093017 | 51 | 190 | 7.0 | 10.0 | 0.00 | 0.01 | 0.00 | 95 | 1008.7 |
| 20260509092021 | 51 | 187 | 7.0 | 9.0 | 0.00 | 0.01 | 0.00 | 95 | 1008.8 |
| 20260509091025 | 51 | 192 | 6.0 | 9.0 | 0.00 | 0.01 | 0.00 | 95 | 1008.8 |
| 20260509090030 | 51 | 168 | 6.0 | 7.0 | 0.00 | 0.01 | 0.00 | 95 | 1009.0 |
| 20260509085016 | 51 | 166 | 7.0 | 9.0 | 0.00 | 0.01 | 0.00 | 95 | 1009.1 |
| 20260509084021 | 51 | 189 | 6.0 | 9.0 | 0.00 | 0.01 | 0.00 | 95 | 1009.1 |
| 20260509083025 | 51 | 185 | 6.0 | 7.0 | 0.00 | 0.01 | 0.00 | 95 | 1009.0 |
| 20260509082029 | 51 | 172 | 5.0 | 7.0 | 0.00 | 0.01 | 0.00 | 95 | 1009.0 |
| 20260509081015 | 51 | 188 | 6.0 | 7.0 | 0.00 | 0.01 | 0.00 | 95 | 1009.0 |
| 20260509080019 | 51 | 185 | 6.0 | 8.0 | 0.00 | 0.01 | 0.00 | 95 | 1009.0 |
| 20260509075024 | 51 | 178 | 6.0 | 9.0 | 0.00 | 0.01 | 0.00 | 95 | 1009.1 |
| 20260509074028 | 51 | 199 | 6.0 | 8.0 | 0.00 | 0.01 | 0.00 | 95 | 1009.1 |
| 20260509073033 | 51 | 189 | 6.0 | 7.0 | 0.00 | 0.01 | 0.00 | 95 | 1009.1 |
| 20260509072019 | 51 | 163 | 5.0 | 6.0 | 0.00 | 0.01 | 0.00 | 95 | 1009.1 |
| 20260509071023 | 51 | 178 | 5.0 | 7.0 | 0.00 | 0.01 | 0.00 | 95 | 1009.3 |
| 20260509070027 | 51 | 185 | 6.0 | 9.0 | 0.00 | 0.01 | 0.00 | 95 | 1009.3 |
| 20260509065032 | 51 | 193 | 6.0 | 8.0 | 0.00 | 0.01 | 0.00 | 95 | 1009.4 |
| 20260509064018 | 51 | 196 | 6.0 | 8.0 | 0.00 | 0.01 | 0.00 | 95 | 1009.5 |
| 20260509063023 | 51 | 204 | 6.0 | 8.0 | 0.00 | 0.01 | 0.00 | 95 | 1009.5 |
| 20260509062027 | 51 | 183 | 6.0 | 8.0 | 0.00 | 0.01 | 0.00 | 95 | 1009.5 |
| 20260509061031 | 51 | 180 | 6.0 | 7.0 | 0.00 | 0.01 | 0.00 | 95 | 1009.6 |
| 20260509060017 | 51 | 160 | 5.0 | 7.0 | 0.00 | 0.01 | 0.00 | 95 | 1009.8 |
| 20260509055022 | 51 | 161 | 5.0 | 7.0 | 0.00 | 0.01 | 0.00 | 95 | 1009.8 |
| 20260509054026 | 51 | 180 | 6.0 | 7.0 | 0.00 | 0.01 | 0.00 | 95 | 1009.9 |
| 20260509053030 | 51 | 183 | 7.0 | 10.0 | 0.00 | 0.01 | 0.00 | 95 | 1010.0 |
| 20260509052036 | 51 | 183 | 6.0 | 8.0 | 0.00 | 0.01 | 0.00 | 95 | 1010.2 |
| 20260509051020 | 51 | 179 | 6.0 | 8.0 | 0.00 | 0.01 | 0.00 | 95 | 1010.3 |
| 20260509050025 | 51 | 182 | 6.0 | 8.0 | 0.00 | 0.01 | 0.00 | 95 | 1010.4 |
| 20260509045023 | 50 | 175 | 7.0 | 11.0 | 0.00 | 0.01 | 0.00 | 95 | 1010.4 |